sensor_id;sensor_type;location;lat;lon;timestamp;pressure;altitude;pressure_sealevel;temperature;humidity
58239;BME280;44037;55.638;37.356;2023-07-30T00:01:51;98163.78;;;14.70;100.00
58239;BME280;44037;55.638;37.356;2023-07-30T00:04:18;98161.25;;;14.69;100.00
58239;BME280;44037;55.638;37.356;2023-07-30T00:06:46;98161.31;;;14.67;100.00
58239;BME280;44037;55.638;37.356;2023-07-30T00:09:13;98154.34;;;14.66;100.00
58239;BME280;44037;55.638;37.356;2023-07-30T00:11:42;98160.47;;;14.65;100.00
58239;BME280;44037;55.638;37.356;2023-07-30T00:14:09;98166.59;;;14.63;100.00
58239;BME280;44037;55.638;37.356;2023-07-30T00:16:37;98163.22;;;14.61;100.00
58239;BME280;44037;55.638;37.356;2023-07-30T00:19:04;98163.31;;;14.57;100.00
58239;BME280;44037;55.638;37.356;2023-07-30T00:21:31;98152.06;;;14.55;100.00
58239;BME280;44037;55.638;37.356;2023-07-30T00:23:59;98151.25;;;14.53;100.00
58239;BME280;44037;55.638;37.356;2023-07-30T00:26:26;98155.66;;;14.51;100.00
58239;BME280;44037;55.638;37.356;2023-07-30T00:28:55;98159.13;;;14.52;100.00
58239;BME280;44037;55.638;37.356;2023-07-30T00:31:23;98149.63;;;14.49;100.00
58239;BME280;44037;55.638;37.356;2023-07-30T00:33:50;98148.75;;;14.50;100.00
58239;BME280;44037;55.638;37.356;2023-07-30T00:36:17;98160.06;;;14.49;100.00
58239;BME280;44037;55.638;37.356;2023-07-30T00:38:44;98157.44;;;14.49;100.00
58239;BME280;44037;55.638;37.356;2023-07-30T00:41:11;98147.97;;;14.48;100.00
58239;BME280;44037;55.638;37.356;2023-07-30T00:43:38;98147.16;;;14.46;100.00
58239;BME280;44037;55.638;37.356;2023-07-30T00:46:07;98146.28;;;14.46;100.00
58239;BME280;44037;55.638;37.356;2023-07-30T00:48:35;98151.56;;;14.44;100.00
58239;BME280;44037;55.638;37.356;2023-07-30T00:51:03;98151.56;;;14.44;100.00
58239;BME280;44037;55.638;37.356;2023-07-30T00:53:30;98149.84;;;14.43;100.00
58239;BME280;44037;55.638;37.356;2023-07-30T00:55:57;98147.28;;;14.41;100.00
58239;BME280;44037;55.638;37.356;2023-07-30T00:58:25;98148.03;;;14.45;100.00
58239;BME280;44037;55.638;37.356;2023-07-30T01:00:54;98147.97;;;14.48;100.00
58239;BME280;44037;55.638;37.356;2023-07-30T01:03:23;98143.66;;;14.47;100.00
58239;BME280;44037;55.638;37.356;2023-07-30T01:05:50;98135.84;;;14.46;100.00
58239;BME280;44037;55.638;37.356;2023-07-30T01:08:18;98148.94;;;14.44;100.00
58239;BME280;44037;55.638;37.356;2023-07-30T01:10:45;98148.22;;;14.39;100.00
58239;BME280;44037;55.638;37.356;2023-07-30T01:13:14;98145.66;;;14.37;100.00
58239;BME280;44037;55.638;37.356;2023-07-30T01:15:42;98143.13;;;14.36;100.00
58239;BME280;44037;55.638;37.356;2023-07-30T01:18:10;98142.34;;;14.32;100.00
58239;BME280;44037;55.638;37.356;2023-07-30T01:20:38;98138.09;;;14.29;100.00
58239;BME280;44037;55.638;37.356;2023-07-30T01:23:08;98142.44;;;14.29;100.00
58239;BME280;44037;55.638;37.356;2023-07-30T01:25:36;98138.09;;;14.29;100.00
58239;BME280;44037;55.638;37.356;2023-07-30T01:28:05;98143.28;;;14.29;100.00
58239;BME280;44037;55.638;37.356;2023-07-30T01:30:38;98139.88;;;14.27;100.00
58239;BME280;44037;55.638;37.356;2023-07-30T01:33:06;98141.50;;;14.32;100.00
58239;BME280;44037;55.638;37.356;2023-07-30T01:35:35;98148.34;;;14.34;100.00
58239;BME280;44037;55.638;37.356;2023-07-30T01:38:03;98137.09;;;14.34;100.00
58239;BME280;44037;55.638;37.356;2023-07-30T01:40:33;98146.56;;;14.36;100.00
58239;BME280;44037;55.638;37.356;2023-07-30T01:43:00;98144.78;;;14.37;100.00
58239;BME280;44037;55.638;37.356;2023-07-30T01:45:27;98144.78;;;14.37;100.00
58239;BME280;44037;55.638;37.356;2023-07-30T01:47:54;98139.59;;;14.37;100.00
58239;BME280;44037;55.638;37.356;2023-07-30T01:50:22;98138.69;;;14.38;100.00
58239;BME280;44037;55.638;37.356;2023-07-30T01:52:49;98142.09;;;14.40;100.00
58239;BME280;44037;55.638;37.356;2023-07-30T01:55:16;98139.41;;;14.43;100.00
58239;BME280;44037;55.638;37.356;2023-07-30T01:57:45;98142.78;;;14.47;100.00
58239;BME280;44037;55.638;37.356;2023-07-30T02:00:12;98158.28;;;14.51;100.00
58239;BME280;44037;55.638;37.356;2023-07-30T02:02:39;98147.81;;;14.53;100.00
58239;BME280;44037;55.638;37.356;2023-07-30T02:05:06;98153.78;;;14.56;100.00
58239;BME280;44037;55.638;37.356;2023-07-30T02:07:34;98156.31;;;14.59;100.00
58239;BME280;44037;55.638;37.356;2023-07-30T02:10:01;98157.09;;;14.62;100.00
58239;BME280;44037;55.638;37.356;2023-07-30T02:12:31;98154.38;;;14.65;100.00
58239;BME280;44037;55.638;37.356;2023-07-30T02:14:59;98156.88;;;14.69;100.00
58239;BME280;44037;55.638;37.356;2023-07-30T02:17:32;98158.56;;;14.72;100.00
58239;BME280;44037;55.638;37.356;2023-07-30T02:20:19;98155.81;;;14.75;100.00
58239;BME280;44037;55.638;37.356;2023-07-30T02:22:46;98162.72;;;14.78;100.00
58239;BME280;44037;55.638;37.356;2023-07-30T02:25:13;98163.56;;;14.78;100.00
58239;BME280;44037;55.638;37.356;2023-07-30T02:27:40;98166.13;;;14.80;100.00
58239;BME280;44037;55.638;37.356;2023-07-30T02:30:09;98167.81;;;14.81;100.00
58239;BME280;44037;55.638;37.356;2023-07-30T02:32:37;98171.22;;;14.83;100.00
58239;BME280;44037;55.638;37.356;2023-07-30T02:35:04;98171.19;;;14.84;100.00
58239;BME280;44037;55.638;37.356;2023-07-30T02:37:32;98169.41;;;14.86;100.00
58239;BME280;44037;55.638;37.356;2023-07-30T02:39:59;98172.78;;;14.88;100.00
58239;BME280;44037;55.638;37.356;2023-07-30T02:42:29;98173.59;;;14.90;100.00
58239;BME280;44037;55.638;37.356;2023-07-30T02:44:56;98179.69;;;14.91;100.00
58239;BME280;44037;55.638;37.356;2023-07-30T02:47:25;98184.84;;;14.93;100.00
58239;BME280;44037;55.638;37.356;2023-07-30T02:49:52;98180.44;;;14.95;100.00
58239;BME280;44037;55.638;37.356;2023-07-30T02:52:19;98182.97;;;14.96;100.00
58239;BME280;44037;55.638;37.356;2023-07-30T02:54:46;98179.31;;;15.02;100.00
58239;BME280;44037;55.638;37.356;2023-07-30T02:57:13;98179.94;;;15.10;100.00
58239;BME280;44037;55.638;37.356;2023-07-30T02:59:40;98179.63;;;15.19;100.00
58239;BME280;44037;55.638;37.356;2023-07-30T03:02:08;98188.94;;;15.27;100.00
58239;BME280;44037;55.638;37.356;2023-07-30T03:04:36;98184.34;;;15.35;100.00
58239;BME280;44037;55.638;37.356;2023-07-30T03:07:04;98184.09;;;15.43;100.00
58239;BME280;44037;55.638;37.356;2023-07-30T03:09:31;98188.91;;;15.55;100.00
58239;BME280;44037;55.638;37.356;2023-07-30T03:11:59;98186.75;;;15.66;100.00
58239;BME280;44037;55.638;37.356;2023-07-30T03:14:26;98190.59;;;15.81;100.00
58239;BME280;44037;55.638;37.356;2023-07-30T03:16:53;98188.38;;;15.96;100.00
58239;BME280;44037;55.638;37.356;2023-07-30T03:19:21;98186.13;;;16.10;100.00
58239;BME280;44037;55.638;37.356;2023-07-30T03:21:49;98188.94;;;16.28;100.00
58239;BME280;44037;55.638;37.356;2023-07-30T03:24:16;98193.50;;;16.47;100.00
58239;BME280;44037;55.638;37.356;2023-07-30T03:26:44;98190.16;;;16.65;100.00
58239;BME280;44037;55.638;37.356;2023-07-30T03:29:11;98193.66;;;16.88;100.00
58239;BME280;44037;55.638;37.356;2023-07-30T03:31:38;98193.84;;;17.06;100.00
58239;BME280;44037;55.638;37.356;2023-07-30T03:34:05;98194.94;;;17.22;100.00
58239;BME280;44037;55.638;37.356;2023-07-30T03:36:33;98199.66;;;17.34;100.00
58239;BME280;44037;55.638;37.356;2023-07-30T03:39:01;98195.34;;;17.33;100.00
58239;BME280;44037;55.638;37.356;2023-07-30T03:41:29;98198.94;;;17.31;100.00
58239;BME280;44037;55.638;37.356;2023-07-30T03:43:57;98193.63;;;17.32;100.00
58239;BME280;44037;55.638;37.356;2023-07-30T03:46:24;98202.16;;;17.38;100.00
58239;BME280;44037;55.638;37.356;2023-07-30T03:48:51;98204.63;;;17.41;100.00
58239;BME280;44037;55.638;37.356;2023-07-30T03:51:18;98208.69;;;17.48;100.00
58239;BME280;44037;55.638;37.356;2023-07-30T03:53:46;98206.72;;;17.53;100.00
58239;BME280;44037;55.638;37.356;2023-07-30T03:56:15;98212.56;;;17.60;100.00
58239;BME280;44037;55.638;37.356;2023-07-30T03:58:42;98209.50;;;17.71;100.00
58239;BME280;44037;55.638;37.356;2023-07-30T04:01:10;98210.66;;;17.84;100.00
58239;BME280;44037;55.638;37.356;2023-07-30T04:03:37;98204.88;;;17.96;100.00
58239;BME280;44037;55.638;37.356;2023-07-30T04:06:04;98209.53;;;18.10;100.00
58239;BME280;44037;55.638;37.356;2023-07-30T04:08:31;98208.94;;;18.24;100.00
58239;BME280;44037;55.638;37.356;2023-07-30T04:10:59;98213.69;;;18.35;100.00
58239;BME280;44037;55.638;37.356;2023-07-30T04:13:27;98214.19;;;18.44;100.00
58239;BME280;44037;55.638;37.356;2023-07-30T04:15:54;98213.69;;;18.54;100.00
58239;BME280;44037;55.638;37.356;2023-07-30T04:18:23;98207.03;;;18.66;100.00
58239;BME280;44037;55.638;37.356;2023-07-30T04:20:51;98216.09;;;18.78;100.00
58239;BME280;44037;55.638;37.356;2023-07-30T04:23:20;98222.13;;;18.80;100.00
58239;BME280;44037;55.638;37.356;2023-07-30T04:25:48;98219.66;;;18.77;100.00
58239;BME280;44037;55.638;37.356;2023-07-30T04:28:19;98224.16;;;18.73;100.00
58239;BME280;44037;55.638;37.356;2023-07-30T04:30:47;98216.47;;;18.70;100.00
58239;BME280;44037;55.638;37.356;2023-07-30T04:33:14;98228.81;;;18.68;100.00
58239;BME280;44037;55.638;37.356;2023-07-30T04:35:42;98225.31;;;18.68;100.00
58239;BME280;44037;55.638;37.356;2023-07-30T04:38:09;98234.88;;;18.69;100.00
58239;BME280;44037;55.638;37.356;2023-07-30T04:40:36;98236.72;;;18.67;100.00
58239;BME280;44037;55.638;37.356;2023-07-30T04:43:03;98232.41;;;18.66;100.00
58239;BME280;44037;55.638;37.356;2023-07-30T04:45:30;98230.00;;;18.61;100.00
58239;BME280;44037;55.638;37.356;2023-07-30T04:47:59;98226.53;;;18.61;100.00
58239;BME280;44037;55.638;37.356;2023-07-30T04:50:26;98233.25;;;18.66;100.00
58239;BME280;44037;55.638;37.356;2023-07-30T04:52:53;98233.34;;;18.65;100.00
58239;BME280;44037;55.638;37.356;2023-07-30T04:55:20;98231.66;;;18.64;100.00
58239;BME280;44037;55.638;37.356;2023-07-30T04:57:47;98237.72;;;18.64;100.00
58239;BME280;44037;55.638;37.356;2023-07-30T05:00:14;98230.72;;;18.65;100.00
58239;BME280;44037;55.638;37.356;2023-07-30T05:02:42;98234.25;;;18.64;100.00
58239;BME280;44037;55.638;37.356;2023-07-30T05:05:11;98244.75;;;18.64;100.00
58239;BME280;44037;55.638;37.356;2023-07-30T05:07:38;98243.28;;;18.58;100.00
58239;BME280;44037;55.638;37.356;2023-07-30T05:10:06;98250.41;;;18.54;100.00
58239;BME280;44037;55.638;37.356;2023-07-30T05:12:36;98253.03;;;18.54;100.00
58239;BME280;44037;55.638;37.356;2023-07-30T05:15:04;98258.44;;;18.51;100.00
58239;BME280;44037;55.638;37.356;2023-07-30T05:17:31;98255.16;;;18.46;100.00
58239;BME280;44037;55.638;37.356;2023-07-30T05:19:59;98261.41;;;18.44;100.00
58239;BME280;44037;55.638;37.356;2023-07-30T05:22:27;98255.28;;;18.43;100.00
58239;BME280;44037;55.638;37.356;2023-07-30T05:24:55;98257.00;;;18.44;100.00
58239;BME280;44037;55.638;37.356;2023-07-30T05:27:22;98263.94;;;18.45;100.00
58239;BME280;44037;55.638;37.356;2023-07-30T05:29:49;98262.19;;;18.46;100.00
58239;BME280;44037;55.638;37.356;2023-07-30T05:32:16;98260.13;;;18.52;100.00
58239;BME280;44037;55.638;37.356;2023-07-30T05:34:44;98261.41;;;18.63;100.00
58239;BME280;44037;55.638;37.356;2023-07-30T05:37:11;98259.19;;;18.72;100.00
58239;BME280;44037;55.638;37.356;2023-07-30T05:39:39;98262.13;;;18.85;100.00
58239;BME280;44037;55.638;37.356;2023-07-30T05:42:06;98261.81;;;18.92;100.00
58239;BME280;44037;55.638;37.356;2023-07-30T05:44:34;98253.69;;;18.98;100.00
58239;BME280;44037;55.638;37.356;2023-07-30T05:47:01;98249.16;;;19.01;100.00
58239;BME280;44037;55.638;37.356;2023-07-30T05:49:28;98259.88;;;18.97;100.00
58239;BME280;44037;55.638;37.356;2023-07-30T05:51:55;98263.50;;;18.94;100.00
58239;BME280;44037;55.638;37.356;2023-07-30T05:54:23;98268.75;;;18.94;100.00
58239;BME280;44037;55.638;37.356;2023-07-30T05:56:51;98252.41;;;19.07;100.00
58239;BME280;44037;55.638;37.356;2023-07-30T05:59:19;98257.69;;;19.24;100.00
58239;BME280;44037;55.638;37.356;2023-07-30T06:01:47;98252.94;;;19.32;100.00
58239;BME280;44037;55.638;37.356;2023-07-30T06:04:14;98243.72;;;19.41;100.00
58239;BME280;44037;55.638;37.356;2023-07-30T06:06:41;98251.09;;;19.52;100.00
58239;BME280;44037;55.638;37.356;2023-07-30T06:09:09;98242.81;;;19.60;100.00
58239;BME280;44037;55.638;37.356;2023-07-30T06:11:38;98241.44;;;19.70;100.00
58239;BME280;44037;55.638;37.356;2023-07-30T06:14:06;98247.13;;;19.78;100.00
58239;BME280;44037;55.638;37.356;2023-07-30T06:16:34;98246.00;;;19.84;100.00
58239;BME280;44037;55.638;37.356;2023-07-30T06:19:01;98244.94;;;19.88;100.00
58239;BME280;44037;55.638;37.356;2023-07-30T06:21:28;98244.88;;;19.90;100.00
58239;BME280;44037;55.638;37.356;2023-07-30T06:23:55;98237.97;;;19.87;100.00
58239;BME280;44037;55.638;37.356;2023-07-30T06:26:22;98234.19;;;19.93;100.00
58239;BME280;44037;55.638;37.356;2023-07-30T06:28:50;98232.03;;;20.01;100.00
58239;BME280;44037;55.638;37.356;2023-07-30T06:31:19;98235.91;;;20.10;100.00
58239;BME280;44037;55.638;37.356;2023-07-30T06:33:46;98226.56;;;20.22;100.00
58239;BME280;44037;55.638;37.356;2023-07-30T06:36:14;98221.81;;;20.29;100.00
58239;BME280;44037;55.638;37.356;2023-07-30T06:38:44;98223.38;;;20.33;100.00
58239;BME280;44037;55.638;37.356;2023-07-30T06:41:11;98233.94;;;20.31;100.00
58239;BME280;44037;55.638;37.356;2023-07-30T06:43:40;98226.97;;;20.30;100.00
58239;BME280;44037;55.638;37.356;2023-07-30T06:46:08;98226.97;;;20.30;100.00
58239;BME280;44037;55.638;37.356;2023-07-30T06:48:36;98221.72;;;20.30;100.00
58239;BME280;44037;55.638;37.356;2023-07-30T06:51:06;98222.50;;;20.32;100.00
58239;BME280;44037;55.638;37.356;2023-07-30T06:53:33;98225.81;;;20.36;100.00
58239;BME280;44037;55.638;37.356;2023-07-30T06:56:02;98230.66;;;20.44;100.00
58239;BME280;44037;55.638;37.356;2023-07-30T06:58:32;98218.78;;;20.52;100.00
58239;BME280;44037;55.638;37.356;2023-07-30T07:01:04;98216.34;;;20.65;100.00
58239;BME280;44037;55.638;37.356;2023-07-30T07:03:31;98219.28;;;20.77;100.00
58239;BME280;44037;55.638;37.356;2023-07-30T07:06:00;98217.47;;;20.77;100.00
58239;BME280;44037;55.638;37.356;2023-07-30T07:08:27;98220.78;;;20.81;100.00
58239;BME280;44037;55.638;37.356;2023-07-30T07:10:54;98228.34;;;20.87;100.00
58239;BME280;44037;55.638;37.356;2023-07-30T07:13:22;98218.56;;;21.05;100.00
58239;BME280;44037;55.638;37.356;2023-07-30T07:15:52;98212.63;;;21.48;100.00
58239;BME280;44037;55.638;37.356;2023-07-30T07:18:20;98216.84;;;21.67;98.94
58239;BME280;44037;55.638;37.356;2023-07-30T07:20:47;98214.56;;;21.60;100.00
58239;BME280;44037;55.638;37.356;2023-07-30T07:23:15;98223.53;;;21.56;99.14
58239;BME280;44037;55.638;37.356;2023-07-30T07:25:44;98212.59;;;21.64;99.20
58239;BME280;44037;55.638;37.356;2023-07-30T07:28:11;98211.97;;;21.75;99.22
58239;BME280;44037;55.638;37.356;2023-07-30T07:30:38;98204.91;;;21.90;98.47
58239;BME280;44037;55.638;37.356;2023-07-30T07:33:05;98209.44;;;22.17;96.41
58239;BME280;44037;55.638;37.356;2023-07-30T07:35:34;98216.72;;;22.28;95.13
58239;BME280;44037;55.638;37.356;2023-07-30T07:38:01;98213.81;;;22.47;92.95
58239;BME280;44037;55.638;37.356;2023-07-30T07:40:30;98209.38;;;22.47;91.98
58239;BME280;44037;55.638;37.356;2023-07-30T07:42:57;98212.44;;;22.68;91.16
58239;BME280;44037;55.638;37.356;2023-07-30T07:45:24;98211.31;;;22.73;88.47
58239;BME280;44037;55.638;37.356;2023-07-30T07:47:51;98211.63;;;22.68;88.60
58239;BME280;44037;55.638;37.356;2023-07-30T07:50:18;98209.91;;;22.67;89.42
58239;BME280;44037;55.638;37.356;2023-07-30T07:52:45;98211.41;;;22.71;88.65
58239;BME280;44037;55.638;37.356;2023-07-30T07:55:13;98202.94;;;22.66;89.25
58239;BME280;44037;55.638;37.356;2023-07-30T07:57:41;98208.22;;;22.66;90.62
58239;BME280;44037;55.638;37.356;2023-07-30T08:00:09;98208.88;;;22.69;86.11
58239;BME280;44037;55.638;37.356;2023-07-30T08:02:36;98201.44;;;22.62;84.87
58239;BME280;44037;55.638;37.356;2023-07-30T08:05:04;98206.16;;;22.57;85.72
58239;BME280;44037;55.638;37.356;2023-07-30T08:07:31;98206.91;;;22.59;86.29
58239;BME280;44037;55.638;37.356;2023-07-30T08:09:58;98209.06;;;22.52;86.72
58239;BME280;44037;55.638;37.356;2023-07-30T08:12:25;98205.41;;;22.40;88.14
58239;BME280;44037;55.638;37.356;2023-07-30T08:14:54;98200.63;;;22.47;88.16
58239;BME280;44037;55.638;37.356;2023-07-30T08:17:22;98207.13;;;22.55;89.25
58239;BME280;44037;55.638;37.356;2023-07-30T08:19:49;98208.47;;;22.76;85.42
58239;BME280;44037;55.638;37.356;2023-07-30T08:22:17;98207.34;;;23.07;83.72
58239;BME280;44037;55.638;37.356;2023-07-30T08:24:44;98203.38;;;23.14;81.57
58239;BME280;44037;55.638;37.356;2023-07-30T08:27:11;98204.00;;;23.18;80.53
58239;BME280;44037;55.638;37.356;2023-07-30T08:29:38;98199.78;;;23.15;81.63
58239;BME280;44037;55.638;37.356;2023-07-30T08:32:07;98213.38;;;23.09;79.32
58239;BME280;44037;55.638;37.356;2023-07-30T08:34:34;98216.94;;;23.08;78.98
58239;BME280;44037;55.638;37.356;2023-07-30T08:37:02;98216.63;;;23.00;76.76
58239;BME280;44037;55.638;37.356;2023-07-30T08:39:29;98212.84;;;23.04;77.22
58239;BME280;44037;55.638;37.356;2023-07-30T08:41:56;98210.41;;;23.14;76.60
58239;BME280;44037;55.638;37.356;2023-07-30T08:44:23;98207.81;;;23.41;76.18
58239;BME280;44037;55.638;37.356;2023-07-30T08:46:51;98201.34;;;23.45;77.16
58239;BME280;44037;55.638;37.356;2023-07-30T08:49:19;98204.53;;;23.63;77.58
58239;BME280;44037;55.638;37.356;2023-07-30T08:51:48;98209.22;;;23.73;75.21
58239;BME280;44037;55.638;37.356;2023-07-30T08:54:20;98205.41;;;23.64;72.51
58239;BME280;44037;55.638;37.356;2023-07-30T08:56:47;98221.06;;;23.27;72.23
58239;BME280;44037;55.638;37.356;2023-07-30T08:59:15;98205.84;;;23.03;73.59
58239;BME280;44037;55.638;37.356;2023-07-30T09:01:44;98209.06;;;22.94;73.24
58239;BME280;44037;55.638;37.356;2023-07-30T09:04:13;98224.31;;;22.76;74.80
58239;BME280;44037;55.638;37.356;2023-07-30T09:06:44;98222.53;;;22.62;73.76
58239;BME280;44037;55.638;37.356;2023-07-30T09:09:14;98210.09;;;22.64;73.88
58239;BME280;44037;55.638;37.356;2023-07-30T09:11:41;98213.03;;;22.74;72.33
58239;BME280;44037;55.638;37.356;2023-07-30T09:14:09;98211.34;;;23.00;71.69
58239;BME280;44037;55.638;37.356;2023-07-30T09:16:36;98221.53;;;23.34;69.85
58239;BME280;44037;55.638;37.356;2023-07-30T09:19:06;98214.09;;;23.66;67.81
58239;BME280;44037;55.638;37.356;2023-07-30T09:21:34;98212.81;;;23.85;68.14
58239;BME280;44037;55.638;37.356;2023-07-30T09:24:03;98217.78;;;23.89;66.40
58239;BME280;44037;55.638;37.356;2023-07-30T09:26:46;98216.03;;;24.03;66.12
58239;BME280;44037;55.638;37.356;2023-07-30T09:29:13;98210.59;;;23.91;65.50
58239;BME280;44037;55.638;37.356;2023-07-30T09:31:46;98229.16;;;23.51;66.48
58239;BME280;44037;55.638;37.356;2023-07-30T09:34:17;98223.53;;;23.43;64.76
58239;BME280;44037;55.638;37.356;2023-07-30T09:36:47;98227.81;;;23.58;63.45
58239;BME280;44037;55.638;37.356;2023-07-30T09:39:20;98217.06;;;23.87;63.86
58239;BME280;44037;55.638;37.356;2023-07-30T09:41:49;98221.09;;;24.06;63.64
58239;BME280;44037;55.638;37.356;2023-07-30T09:44:17;98224.69;;;23.92;63.83
58239;BME280;44037;55.638;37.356;2023-07-30T09:46:46;98226.22;;;23.56;63.21
58239;BME280;44037;55.638;37.356;2023-07-30T09:49:15;98240.53;;;23.39;64.20
58239;BME280;44037;55.638;37.356;2023-07-30T09:51:42;98233.88;;;23.33;64.97
58239;BME280;44037;55.638;37.356;2023-07-30T09:54:11;98237.19;;;23.37;64.84
58239;BME280;44037;55.638;37.356;2023-07-30T09:56:41;98233.06;;;23.45;64.78
58239;BME280;44037;55.638;37.356;2023-07-30T09:59:09;98233.59;;;23.51;64.33
58239;BME280;44037;55.638;37.356;2023-07-30T10:01:40;98223.59;;;23.56;64.56
58239;BME280;44037;55.638;37.356;2023-07-30T10:04:11;98244.97;;;23.78;63.58
58239;BME280;44037;55.638;37.356;2023-07-30T10:06:41;98233.34;;;23.81;61.74
58239;BME280;44037;55.638;37.356;2023-07-30T10:09:10;98228.25;;;23.65;62.97
58239;BME280;44037;55.638;37.356;2023-07-30T10:11:41;98225.91;;;23.60;62.83
58239;BME280;44037;55.638;37.356;2023-07-30T10:14:10;98239.34;;;23.70;61.67
58239;BME280;44037;55.638;37.356;2023-07-30T10:16:38;98236.97;;;23.93;61.36
58239;BME280;44037;55.638;37.356;2023-07-30T10:19:05;98237.72;;;24.21;58.71
58239;BME280;44037;55.638;37.356;2023-07-30T10:21:33;98228.72;;;24.36;57.70
58239;BME280;44037;55.638;37.356;2023-07-30T10:24:02;98235.56;;;24.52;56.19
58239;BME280;44037;55.638;37.356;2023-07-30T10:26:31;98230.59;;;24.47;57.21
58239;BME280;44037;55.638;37.356;2023-07-30T10:29:14;98241.75;;;24.14;58.50
58239;BME280;44037;55.638;37.356;2023-07-30T10:31:44;98236.09;;;23.92;58.57
58239;BME280;44037;55.638;37.356;2023-07-30T10:34:14;98242.84;;;23.84;57.23
58239;BME280;44037;55.638;37.356;2023-07-30T10:36:43;98246.00;;;23.76;56.97
58239;BME280;44037;55.638;37.356;2023-07-30T10:39:12;98244.53;;;23.85;55.72
58239;BME280;44037;55.638;37.356;2023-07-30T10:41:39;98236.75;;;24.22;56.64
58239;BME280;44037;55.638;37.356;2023-07-30T10:44:06;98240.38;;;24.34;55.72
58239;BME280;44037;55.638;37.356;2023-07-30T10:46:35;98233.38;;;24.20;56.01
58239;BME280;44037;55.638;37.356;2023-07-30T10:49:03;98233.28;;;23.96;56.04
58239;BME280;44037;55.638;37.356;2023-07-30T10:51:33;98239.59;;;23.93;56.52
58239;BME280;44037;55.638;37.356;2023-07-30T10:54:00;98235.41;;;24.03;56.49
58239;BME280;44037;55.638;37.356;2023-07-30T10:56:27;98236.56;;;24.25;55.50
58239;BME280;44037;55.638;37.356;2023-07-30T10:58:55;98240.34;;;24.47;54.49
58239;BME280;44037;55.638;37.356;2023-07-30T11:01:24;98225.81;;;24.65;52.44
58239;BME280;44037;55.638;37.356;2023-07-30T11:03:54;98224.41;;;24.86;52.78
58239;BME280;44037;55.638;37.356;2023-07-30T11:06:22;98223.03;;;24.80;51.13
58239;BME280;44037;55.638;37.356;2023-07-30T11:08:49;98229.72;;;24.73;50.38
58239;BME280;44037;55.638;37.356;2023-07-30T11:11:17;98230.16;;;24.53;49.59
58239;BME280;44037;55.638;37.356;2023-07-30T11:13:45;98231.66;;;24.45;50.38
58239;BME280;44037;55.638;37.356;2023-07-30T11:16:13;98234.91;;;24.61;50.03
58239;BME280;44037;55.638;37.356;2023-07-30T11:18:41;98230.31;;;24.89;51.35
58239;BME280;44037;55.638;37.356;2023-07-30T11:21:11;98230.09;;;24.92;51.45
58239;BME280;44037;55.638;37.356;2023-07-30T11:23:40;98233.69;;;24.91;50.72
58239;BME280;44037;55.638;37.356;2023-07-30T11:26:08;98228.31;;;24.67;50.89
58239;BME280;44037;55.638;37.356;2023-07-30T11:28:37;98239.91;;;24.53;50.60
58239;BME280;44037;55.638;37.356;2023-07-30T11:31:07;98238.22;;;24.52;49.33
58239;BME280;44037;55.638;37.356;2023-07-30T11:33:36;98246.38;;;24.49;49.52
58239;BME280;44037;55.638;37.356;2023-07-30T11:36:06;98243.72;;;24.62;47.53
58239;BME280;44037;55.638;37.356;2023-07-30T11:38:35;98236.03;;;24.83;48.13
58239;BME280;44037;55.638;37.356;2023-07-30T11:41:04;98236.59;;;25.12;48.61
58239;BME280;44037;55.638;37.356;2023-07-30T11:43:36;98226.09;;;25.35;47.80
58239;BME280;44037;55.638;37.356;2023-07-30T11:46:12;98247.06;;;25.38;47.78
58239;BME280;44037;55.638;37.356;2023-07-30T11:48:40;98248.63;;;24.92;48.25
58239;BME280;44037;55.638;37.356;2023-07-30T11:51:19;98252.53;;;24.49;49.01
58239;BME280;44037;55.638;37.356;2023-07-30T11:53:50;98245.56;;;24.22;50.60
58239;BME280;44037;55.638;37.356;2023-07-30T11:56:18;98251.56;;;24.12;50.92
58239;BME280;44037;55.638;37.356;2023-07-30T11:58:45;98244.78;;;24.07;49.62
58239;BME280;44037;55.638;37.356;2023-07-30T12:01:13;98247.25;;;23.98;45.69
58239;BME280;44037;55.638;37.356;2023-07-30T12:03:40;98245.34;;;24.00;46.54
58239;BME280;44037;55.638;37.356;2023-07-30T12:06:09;98244.59;;;23.98;47.08
58239;BME280;44037;55.638;37.356;2023-07-30T12:08:37;98245.97;;;24.03;47.98
58239;BME280;44037;55.638;37.356;2023-07-30T12:11:06;98240.91;;;24.00;48.33
58239;BME280;44037;55.638;37.356;2023-07-30T12:13:42;98251.34;;;24.02;48.77
58239;BME280;44037;55.638;37.356;2023-07-30T12:16:11;98238.69;;;24.07;48.77
58239;BME280;44037;55.638;37.356;2023-07-30T12:18:39;98249.56;;;24.02;48.51
58239;BME280;44037;55.638;37.356;2023-07-30T12:21:07;98247.19;;;23.85;49.78
58239;BME280;44037;55.638;37.356;2023-07-30T12:23:37;98251.97;;;23.80;50.13
58239;BME280;44037;55.638;37.356;2023-07-30T12:26:06;98255.06;;;23.99;49.61
58239;BME280;44037;55.638;37.356;2023-07-30T12:28:33;98250.31;;;24.30;48.39
58239;BME280;44037;55.638;37.356;2023-07-30T12:31:00;98250.59;;;24.51;47.89
58239;BME280;44037;55.638;37.356;2023-07-30T12:33:27;98243.38;;;24.66;48.07
58239;BME280;44037;55.638;37.356;2023-07-30T12:35:54;98248.25;;;24.86;48.75
58239;BME280;44037;55.638;37.356;2023-07-30T12:38:22;98247.28;;;25.11;47.72
58239;BME280;44037;55.638;37.356;2023-07-30T12:40:49;98250.16;;;25.32;46.74
58239;BME280;44037;55.638;37.356;2023-07-30T12:43:18;98244.53;;;25.37;46.76
58239;BME280;44037;55.638;37.356;2023-07-30T12:45:47;98255.44;;;25.45;47.12
58239;BME280;44037;55.638;37.356;2023-07-30T12:48:14;98254.78;;;25.66;47.18
58239;BME280;44037;55.638;37.356;2023-07-30T12:50:41;98247.31;;;25.71;46.81